Jenkins Township, Pennsylvania
Current Conditions -  °F | °C
As of 8:54 PM on Sunday 25 Jan 2015 (Local Time) from KAVP Reporting Station
Broken Clouds Broken Clouds  
Wind Chill: 12°   Ceiling: 4900
Heat Index: 23°   Visibility: 10mi
Dew Point: 10°   Wind: 10mph
Humidity: 58%   Direction: 30°NNE
Pressure: 29.93"   Gusts: NA
Location:  41.2973°N, 75.7399°W
Report Text: KAVP 260154Z AUTO 03009KT 10SM BKN049 M05/M12 A2993 RMK AO2 SLP144 T10501122
Loading
Personal Weather Stations






























Interactive Weather Map New forecast layout! Learn more

10-Day Weather Forecast

Advertisements
Track Severe Weather on mobile